Time;durP1;ratioP1;P1;durP2;ratioP2;P2;SDS_P1;SDS_P2;PMS_P1;PMS_P2;Temp;Humidity;BMP_temperature;BMP_pressure;BME280_temperature;BME280_humidity;BME280_pressure;Samples;Min_cycle;Max_cycle;Signal;HPM_P1;HPM_P2
2023/05/27 00:00:08;;;;;;;20.33;4.78;;;;;;;;;;5033373;28;20237;-74
2023/05/27 00:02:34;;;;;;;15.88;4.00;;;;;;;;;;5029275;28;20190;-74
2023/05/27 00:05:00;;;;;;;18.83;4.10;;;;;;;;;;5049321;28;20616;-74
2023/05/27 00:07:25;;;;;;;17.88;4.63;;;;;;;;;;5037032;28;20186;-74
2023/05/27 00:09:50;;;;;;;18.55;4.75;;;;;;;;;;5028828;28;20220;-73
2023/05/27 00:12:16;;;;;;;14.00;4.47;;;;;;;;;;5032432;28;20191;-74
2023/05/27 00:14:42;;;;;;;16.60;3.90;;;;;;;;;;5012082;28;20566;-73
2023/05/27 00:17:09;;;;;;;22.08;4.50;;;;;;;;;;5019856;28;20665;-74
2023/05/27 00:19:34;;;;;;;19.67;4.53;;;;;;;;;;5031289;28;20190;-73
2023/05/27 00:22:00;;;;;;;10.88;3.83;;;;;;;;;;5019499;28;20274;-72
2023/05/27 00:24:25;;;;;;;16.35;4.85;;;;;;;;;;5022754;28;20232;-73
2023/05/27 00:26:51;;;;;;;16.38;4.30;;;;;;;;;;5025537;28;20638;-74
2023/05/27 00:29:17;;;;;;;16.92;4.22;;;;;;;;;;5028315;28;20178;-73
2023/05/27 00:31:42;;;;;;;17.13;3.95;;;;;;;;;;5024866;28;20201;-74
2023/05/27 00:34:08;;;;;;;21.20;4.85;;;;;;;;;;5021364;28;20565;-74
2023/05/27 00:36:33;;;;;;;16.75;4.80;;;;;;;;;;5025099;28;20213;-73
2023/05/27 00:39:00;;;;;;;18.13;4.85;;;;;;;;;;5029526;28;20312;-73
2023/05/27 00:41:26;;;;;;;18.90;4.13;;;;;;;;;;5022185;28;20671;-73
2023/05/27 00:43:52;;;;;;;17.92;4.45;;;;;;;;;;5030408;28;20209;-73
2023/05/27 00:46:18;;;;;;;15.57;4.28;;;;;;;;;;5014773;28;20713;-74
2023/05/27 00:48:45;;;;;;;21.35;4.53;;;;;;;;;;5019253;28;20198;-74
2023/05/27 00:51:11;;;;;;;21.80;5.78;;;;;;;;;;5027956;28;20252;-74
2023/05/27 00:53:41;;;;;;;16.48;4.15;;;;;;;;;;5029245;28;20225;-74
2023/05/27 00:56:08;;;;;;;18.52;4.85;;;;;;;;;;5018728;28;20195;-73
2023/05/27 00:58:34;;;;;;;20.27;4.57;;;;;;;;;;5023606;28;20231;-73
2023/05/27 01:01:00;;;;;;;13.68;4.47;;;;;;;;;;5023303;28;20210;-73
2023/05/27 01:03:28;;;;;;;21.90;4.72;;;;;;;;;;5026652;28;20202;-74
2023/05/27 01:06:00;;;;;;;18.35;5.10;;;;;;;;;;5021463;28;20197;-74
2023/05/27 01:08:41;;;;;;;15.85;4.80;;;;;;;;;;5028597;28;20194;-73
2023/05/27 01:11:10;;;;;;;14.73;4.38;;;;;;;;;;5018215;28;20221;-74
2023/05/27 01:13:40;;;;;;;13.48;4.85;;;;;;;;;;5026803;28;20198;-73
2023/05/27 01:16:11;;;;;;;13.63;4.43;;;;;;;;;;5029986;28;20190;-73
2023/05/27 01:18:40;;;;;;;12.82;4.68;;;;;;;;;;5024575;28;20187;-73
2023/05/27 01:21:09;;;;;;;18.60;5.07;;;;;;;;;;5028834;28;20206;-73
2023/05/27 01:23:38;;;;;;;20.15;5.93;;;;;;;;;;5024984;28;20191;-73
2023/05/27 01:26:04;;;;;;;18.45;5.38;;;;;;;;;;5019719;28;20239;-73
2023/05/27 01:28:30;;;;;;;20.40;4.85;;;;;;;;;;5020706;28;20190;-74
2023/05/27 01:31:05;;;;;;;19.27;5.18;;;;;;;;;;5029780;28;20660;-73
2023/05/27 01:33:36;;;;;;;20.17;5.05;;;;;;;;;;5028138;28;20252;-72
2023/05/27 01:36:08;;;;;;;25.65;5.20;;;;;;;;;;5012078;28;20558;-73
2023/05/27 01:38:36;;;;;;;20.17;5.40;;;;;;;;;;5023864;28;20260;-73
2023/05/27 01:41:02;;;;;;;23.40;6.63;;;;;;;;;;5022655;28;20290;-73
2023/05/27 01:43:28;;;;;;;12.35;4.60;;;;;;;;;;5028142;28;20712;-72
2023/05/27 01:45:53;;;;;;;18.23;4.93;;;;;;;;;;5024866;28;20639;-72
2023/05/27 01:48:19;;;;;;;23.70;5.38;;;;;;;;;;5027817;28;20401;-73
2023/05/27 01:50:45;;;;;;;25.45;5.50;;;;;;;;;;5027043;28;20275;-73
2023/05/27 01:53:11;;;;;;;21.15;5.22;;;;;;;;;;5007924;28;20207;-73
2023/05/27 01:55:37;;;;;;;18.17;5.38;;;;;;;;;;5026843;28;20193;-73
2023/05/27 01:58:03;;;;;;;20.90;5.47;;;;;;;;;;5020458;28;20205;-73
2023/05/27 02:00:28;;;;;;;15.10;5.03;;;;;;;;;;5015328;28;20247;-72
2023/05/27 02:02:54;;;;;;;20.08;5.32;;;;;;;;;;5025628;28;20599;-73
2023/05/27 02:05:19;;;;;;;17.05;5.35;;;;;;;;;;5029090;28;20220;-73
2023/05/27 02:07:44;;;;;;;18.23;4.78;;;;;;;;;;5029782;28;20275;-73
2023/05/27 02:10:10;;;;;;;18.58;5.50;;;;;;;;;;5039549;28;20246;-73
2023/05/27 02:12:35;;;;;;;16.90;5.28;;;;;;;;;;5028246;28;20198;-72
2023/05/27 02:15:01;;;;;;;22.47;5.90;;;;;;;;;;5029114;28;20224;-72
2023/05/27 02:17:27;;;;;;;24.48;8.05;;;;;;;;;;5025523;28;20208;-73
2023/05/27 02:19:52;;;;;;;25.27;6.40;;;;;;;;;;5028697;28;20216;-72
2023/05/27 02:22:18;;;;;;;19.05;5.90;;;;;;;;;;5026421;28;20195;-73
2023/05/27 02:24:43;;;;;;;17.57;6.00;;;;;;;;;;5033404;28;20197;-73
2023/05/27 02:27:09;;;;;;;26.05;6.28;;;;;;;;;;5032206;28;20187;-75
2023/05/27 02:29:34;;;;;;;18.57;6.30;;;;;;;;;;5024508;28;20244;-72
2023/05/27 02:32:00;;;;;;;18.77;6.10;;;;;;;;;;5021206;28;20210;-72
2023/05/27 02:34:25;;;;;;;30.42;6.00;;;;;;;;;;5029121;28;20634;-73
2023/05/27 02:36:51;;;;;;;23.90;6.15;;;;;;;;;;5026770;28;20196;-73
2023/05/27 02:39:17;;;;;;;18.73;5.80;;;;;;;;;;5025721;28;20321;-73
2023/05/27 02:41:42;;;;;;;23.33;7.30;;;;;;;;;;5028528;28;20498;-72
2023/05/27 02:44:07;;;;;;;20.80;5.65;;;;;;;;;;5026645;28;20189;-73
2023/05/27 02:46:33;;;;;;;21.35;5.88;;;;;;;;;;5019859;28;20608;-72
2023/05/27 02:48:58;;;;;;;16.43;5.70;;;;;;;;;;5022220;28;20517;-73
2023/05/27 02:51:24;;;;;;;17.00;5.93;;;;;;;;;;5016070;28;20252;-73
2023/05/27 02:53:50;;;;;;;22.85;5.75;;;;;;;;;;5027391;28;20190;-72
2023/05/27 02:56:15;;;;;;;25.15;5.97;;;;;;;;;;5023159;28;20348;-73
2023/05/27 02:58:41;;;;;;;23.15;5.65;;;;;;;;;;5021039;28;20701;-72
2023/05/27 03:01:06;;;;;;;20.27;6.18;;;;;;;;;;5022566;28;20582;-73
2023/05/27 03:03:32;;;;;;;16.87;5.80;;;;;;;;;;5019194;28;20201;-73
2023/05/27 03:05:57;;;;;;;28.08;6.63;;;;;;;;;;5009491;28;20653;-73
2023/05/27 03:08:22;;;;;;;18.20;6.68;;;;;;;;;;5026621;28;20261;-73
2023/05/27 03:10:48;;;;;;;20.75;5.65;;;;;;;;;;5024741;28;20705;-73
2023/05/27 03:13:13;;;;;;;20.48;5.80;;;;;;;;;;5022073;28;20201;-73
2023/05/27 03:15:39;;;;;;;20.63;6.13;;;;;;;;;;5017983;28;20198;-73
2023/05/27 03:18:04;;;;;;;20.75;6.10;;;;;;;;;;5035782;28;20190;-73
2023/05/27 03:20:30;;;;;;;20.05;6.13;;;;;;;;;;5031338;28;20190;-73
2023/05/27 03:22:56;;;;;;;21.30;5.80;;;;;;;;;;5027271;28;20309;-73
2023/05/27 03:25:21;;;;;;;21.83;5.93;;;;;;;;;;5031292;28;20189;-73
2023/05/27 03:27:46;;;;;;;15.87;5.33;;;;;;;;;;5025325;28;20198;-73
2023/05/27 03:30:12;;;;;;;22.70;6.03;;;;;;;;;;5029962;28;20214;-73
2023/05/27 03:32:37;;;;;;;17.57;5.83;;;;;;;;;;5021506;28;20623;-73
2023/05/27 03:35:03;;;;;;;20.77;5.73;;;;;;;;;;5032363;28;20190;-73
2023/05/27 03:37:28;;;;;;;16.47;6.03;;;;;;;;;;5037840;28;20710;-73
2023/05/27 03:39:54;;;;;;;21.23;5.50;;;;;;;;;;5024747;28;20698;-73
2023/05/27 03:42:19;;;;;;;17.50;5.37;;;;;;;;;;5029924;28;20197;-73
2023/05/27 03:44:45;;;;;;;16.67;5.97;;;;;;;;;;5012017;28;20264;-73
2023/05/27 03:47:10;;;;;;;18.50;5.57;;;;;;;;;;5025707;28;20376;-73
2023/05/27 03:49:35;;;;;;;13.17;5.57;;;;;;;;;;5026096;28;20211;-73
2023/05/27 03:52:01;;;;;;;14.20;5.40;;;;;;;;;;5030576;28;20683;-73
2023/05/27 03:54:26;;;;;;;17.03;6.20;;;;;;;;;;5022885;28;20214;-73
2023/05/27 03:56:52;;;;;;;23.73;6.73;;;;;;;;;;5020583;28;20228;-73
2023/05/27 03:59:20;;;;;;;15.07;6.07;;;;;;;;;;5028936;28;20230;-74
2023/05/27 04:01:46;;;;;;;17.37;5.80;;;;;;;;;;5025058;28;20217;-74
2023/05/27 04:04:12;;;;;;;15.10;6.30;;;;;;;;;;5028363;28;20285;-73
2023/05/27 04:06:38;;;;;;;26.40;6.40;;;;;;;;;;5024381;28;20289;-73
2023/05/27 04:09:03;;;;;;;26.57;7.53;;;;;;;;;;5016510;28;20197;-73
2023/05/27 04:11:29;;;;;;;21.43;6.57;;;;;;;;;;5024931;28;20234;-73
2023/05/27 04:13:55;;;;;;;21.17;6.97;;;;;;;;;;5027505;28;20266;-73
2023/05/27 04:16:21;;;;;;;26.20;6.78;;;;;;;;;;5026621;28;20516;-73
2023/05/27 04:18:48;;;;;;;19.87;6.50;;;;;;;;;;5016509;28;20193;-73
2023/05/27 04:21:15;;;;;;;16.55;5.78;;;;;;;;;;5029223;28;20291;-73
2023/05/27 04:23:40;;;;;;;25.03;7.37;;;;;;;;;;5035586;28;20198;-73
2023/05/27 04:26:06;;;;;;;24.67;7.40;;;;;;;;;;5039222;28;20193;-73
2023/05/27 04:28:34;;;;;;;24.00;7.00;;;;;;;;;;5033060;28;20202;-73
2023/05/27 04:30:59;;;;;;;23.00;6.97;;;;;;;;;;5030114;28;20213;-73
2023/05/27 04:33:25;;;;;;;22.67;8.27;;;;;;;;;;5027919;28;20194;-73
2023/05/27 04:35:53;;;;;;;20.02;6.35;;;;;;;;;;5033304;28;20552;-73
2023/05/27 04:38:20;;;;;;;18.27;6.63;;;;;;;;;;5040008;28;20556;-75
2023/05/27 04:40:46;;;;;;;26.52;7.97;;;;;;;;;;5033301;28;20194;-73
2023/05/27 04:43:14;;;;;;;19.42;6.38;;;;;;;;;;5027880;28;20265;-73
2023/05/27 04:45:39;;;;;;;19.10;6.38;;;;;;;;;;5028321;28;20194;-73
2023/05/27 04:48:04;;;;;;;20.10;6.95;;;;;;;;;;5030928;28;20182;-73
2023/05/27 04:50:31;;;;;;;19.25;7.07;;;;;;;;;;5028187;28;20245;-73
2023/05/27 04:52:56;;;;;;;22.13;6.53;;;;;;;;;;5033578;28;20190;-73
2023/05/27 04:55:22;;;;;;;25.63;6.82;;;;;;;;;;5028845;28;20197;-73
2023/05/27 04:57:48;;;;;;;20.73;6.65;;;;;;;;;;5046955;28;20178;-74
2023/05/27 05:00:22;;;;;;;24.70;6.47;;;;;;;;;;5031019;28;20672;-73
2023/05/27 05:02:48;;;;;;;25.33;6.90;;;;;;;;;;5030250;28;20575;-74
2023/05/27 05:05:13;;;;;;;34.10;7.25;;;;;;;;;;5028822;28;20186;-73
2023/05/27 05:07:41;;;;;;;25.30;6.93;;;;;;;;;;5029735;28;20186;-73
2023/05/27 05:10:11;;;;;;;19.75;6.40;;;;;;;;;;5023855;28;20203;-73
2023/05/27 05:12:37;;;;;;;22.27;6.32;;;;;;;;;;5029169;28;20197;-73
2023/05/27 05:15:03;;;;;;;27.23;6.85;;;;;;;;;;5024194;28;20788;-73
2023/05/27 05:17:28;;;;;;;24.75;7.57;;;;;;;;;;5029316;28;20544;-72
2023/05/27 05:19:54;;;;;;;24.48;7.07;;;;;;;;;;5006202;28;20185;-72
2023/05/27 05:22:22;;;;;;;27.40;6.82;;;;;;;;;;5026337;28;20558;-72
2023/05/27 05:24:48;;;;;;;22.80;6.50;;;;;;;;;;5025643;28;20236;-73
2023/05/27 05:27:13;;;;;;;22.50;6.40;;;;;;;;;;5020706;28;20225;-72
2023/05/27 05:29:39;;;;;;;33.38;7.25;;;;;;;;;;5024014;28;20209;-72
2023/05/27 05:32:05;;;;;;;20.27;6.45;;;;;;;;;;5022212;28;20194;-73
2023/05/27 05:34:30;;;;;;;21.13;6.03;;;;;;;;;;5029830;28;20193;-73
2023/05/27 05:36:56;;;;;;;32.90;7.05;;;;;;;;;;5021152;28;20201;-73
2023/05/27 05:39:21;;;;;;;25.88;6.63;;;;;;;;;;5019165;28;20418;-73
2023/05/27 05:41:46;;;;;;;28.05;6.28;;;;;;;;;;5019535;28;20198;-73
2023/05/27 05:44:12;;;;;;;22.70;5.70;;;;;;;;;;5022673;28;20189;-74
2023/05/27 05:46:38;;;;;;;30.88;6.88;;;;;;;;;;5027992;28;20197;-74
2023/05/27 05:49:04;;;;;;;29.58;7.28;;;;;;;;;;5028301;28;20190;-74
2023/05/27 05:51:30;;;;;;;23.88;6.20;;;;;;;;;;5027247;28;20228;-74
2023/05/27 05:53:56;;;;;;;23.00;5.40;;;;;;;;;;5019192;28;20183;-74
2023/05/27 05:56:22;;;;;;;27.00;5.82;;;;;;;;;;5032120;28;20198;-74
2023/05/27 05:58:47;;;;;;;26.05;5.43;;;;;;;;;;5029220;28;20194;-73
2023/05/27 06:01:12;;;;;;;23.65;5.57;;;;;;;;;;5027166;28;20714;-74
2023/05/27 06:03:38;;;;;;;27.30;6.85;;;;;;;;;;5023409;28;20206;-74
2023/05/27 06:06:03;;;;;;;25.38;6.10;;;;;;;;;;5027824;28;20233;-75
2023/05/27 06:08:30;;;;;;;25.95;6.25;;;;;;;;;;5030524;28;20600;-72
2023/05/27 06:10:55;;;;;;;20.60;5.85;;;;;;;;;;5021187;28;20233;-74
2023/05/27 06:13:21;;;;;;;24.30;5.90;;;;;;;;;;5030330;28;20193;-74
2023/05/27 06:15:46;;;;;;;26.10;5.35;;;;;;;;;;5028038;28;20587;-74
2023/05/27 06:18:11;;;;;;;19.17;5.38;;;;;;;;;;5027867;28;20659;-74
2023/05/27 06:20:37;;;;;;;19.67;5.07;;;;;;;;;;5022227;28;20222;-74
2023/05/27 06:23:02;;;;;;;23.35;5.65;;;;;;;;;;5019432;28;20210;-74
2023/05/27 06:25:28;;;;;;;25.35;5.68;;;;;;;;;;5026003;28;20190;-74
2023/05/27 06:27:53;;;;;;;22.60;6.03;;;;;;;;;;5026602;28;20189;-74
2023/05/27 06:30:19;;;;;;;24.15;5.60;;;;;;;;;;5017218;28;20268;-75
2023/05/27 06:32:45;;;;;;;25.00;5.53;;;;;;;;;;5025737;28;20273;-74
2023/05/27 06:35:10;;;;;;;26.08;6.00;;;;;;;;;;5026830;28;20193;-76
2023/05/27 06:37:35;;;;;;;22.40;5.75;;;;;;;;;;5023975;28;20248;-74
2023/05/27 06:40:01;;;;;;;29.98;6.00;;;;;;;;;;5020153;28;20269;-74
2023/05/27 06:42:26;;;;;;;25.27;6.18;;;;;;;;;;5019009;28;20178;-73
2023/05/27 06:44:52;;;;;;;22.02;5.70;;;;;;;;;;5024826;28;20198;-75
2023/05/27 06:47:17;;;;;;;22.63;6.20;;;;;;;;;;5018335;28;20214;-75
2023/05/27 06:49:42;;;;;;;22.55;5.20;;;;;;;;;;5023517;28;20240;-74
2023/05/27 06:52:08;;;;;;;20.77;6.10;;;;;;;;;;5016143;28;20182;-74
2023/05/27 06:54:33;;;;;;;19.50;5.10;;;;;;;;;;5028430;28;20202;-74
2023/05/27 06:56:59;;;;;;;25.33;6.13;;;;;;;;;;5032754;28;20201;-75
2023/05/27 06:59:25;;;;;;;19.85;5.43;;;;;;;;;;5022361;28;20194;-74
2023/05/27 07:01:51;;;;;;;20.42;5.50;;;;;;;;;;5031077;28;20228;-75
2023/05/27 07:04:16;;;;;;;21.17;5.43;;;;;;;;;;5025156;28;20186;-74
2023/05/27 07:06:42;;;;;;;20.83;5.60;;;;;;;;;;5030460;28;20221;-75
2023/05/27 07:09:08;;;;;;;18.10;5.85;;;;;;;;;;5037850;28;20194;-74
2023/05/27 07:11:33;;;;;;;21.60;5.88;;;;;;;;;;5031407;28;20210;-75
2023/05/27 07:13:59;;;;;;;19.80;5.57;;;;;;;;;;5031764;28;20192;-76
2023/05/27 07:16:25;;;;;;;23.90;5.53;;;;;;;;;;5033626;28;20646;-75
2023/05/27 07:18:50;;;;;;;22.95;5.93;;;;;;;;;;5033868;28;20225;-75
2023/05/27 07:21:15;;;;;;;21.20;5.75;;;;;;;;;;5032293;28;20210;-73
2023/05/27 07:23:41;;;;;;;15.40;5.50;;;;;;;;;;5031676;28;20194;-74
2023/05/27 07:26:06;;;;;;;16.52;5.53;;;;;;;;;;5030930;28;20677;-74
2023/05/27 07:28:32;;;;;;;23.20;6.00;;;;;;;;;;5035158;28;20215;-74
2023/05/27 07:30:57;;;;;;;18.15;5.60;;;;;;;;;;5032176;28;20213;-75
2023/05/27 07:33:23;;;;;;;20.23;5.47;;;;;;;;;;5021979;28;20186;-73
2023/05/27 07:35:48;;;;;;;23.10;5.68;;;;;;;;;;5025520;28;20193;-75
2023/05/27 07:38:14;;;;;;;21.95;6.25;;;;;;;;;;5029787;28;20190;-76
2023/05/27 07:40:39;;;;;;;18.95;5.90;;;;;;;;;;5035460;28;20193;-74
2023/05/27 07:43:05;;;;;;;22.48;6.13;;;;;;;;;;5031269;28;20269;-74
2023/05/27 07:45:30;;;;;;;19.38;5.65;;;;;;;;;;5034202;28;20198;-75
2023/05/27 07:47:56;;;;;;;19.40;5.60;;;;;;;;;;5024100;28;20650;-73
2023/05/27 07:50:21;;;;;;;19.73;5.55;;;;;;;;;;5028456;28;20207;-74
2023/05/27 07:52:46;;;;;;;24.30;5.85;;;;;;;;;;5030932;28;20189;-74
2023/05/27 07:55:12;;;;;;;25.00;5.85;;;;;;;;;;5023804;28;20653;-74
2023/05/27 07:57:37;;;;;;;18.90;5.30;;;;;;;;;;5028924;28;20182;-74
2023/05/27 08:00:06;;;;;;;22.27;6.03;;;;;;;;;;5036906;28;20261;-73
2023/05/27 08:02:31;;;;;;;17.73;5.93;;;;;;;;;;5012357;28;20194;-74
2023/05/27 08:04:57;;;;;;;19.23;6.18;;;;;;;;;;5030582;28;20273;-74
2023/05/27 08:07:22;;;;;;;18.25;4.78;;;;;;;;;;5038180;28;20725;-71
2023/05/27 08:09:47;;;;;;;20.00;5.10;;;;;;;;;;5032805;28;20232;-73
2023/05/27 08:12:13;;;;;;;22.20;5.57;;;;;;;;;;5027842;28;20297;-74
2023/05/27 08:14:40;;;;;;;29.00;7.05;;;;;;;;;;5037089;28;20191;-73
2023/05/27 08:17:05;;;;;;;23.30;5.72;;;;;;;;;;5029123;28;20565;-74
2023/05/27 08:19:31;;;;;;;22.35;6.40;;;;;;;;;;5035026;28;20255;-75
2023/05/27 08:21:57;;;;;;;16.55;5.82;;;;;;;;;;5028166;28;20211;-74
2023/05/27 08:24:22;;;;;;;22.52;5.45;;;;;;;;;;5025687;28;20278;-72
2023/05/27 08:26:48;;;;;;;21.75;6.32;;;;;;;;;;5028979;28;20255;-73
2023/05/27 08:29:14;;;;;;;20.20;4.82;;;;;;;;;;5019613;28;20194;-71
2023/05/27 08:31:40;;;;;;;20.73;5.30;;;;;;;;;;5043295;28;20642;-73
2023/05/27 08:34:05;;;;;;;21.17;5.32;;;;;;;;;;5029973;28;20312;-72
2023/05/27 08:36:31;;;;;;;17.95;5.78;;;;;;;;;;5025920;28;20213;-74
2023/05/27 08:38:57;;;;;;;18.27;5.00;;;;;;;;;;5031576;28;20226;-73
2023/05/27 08:41:23;;;;;;;18.02;5.45;;;;;;;;;;5026481;28;20772;-72
2023/05/27 08:43:49;;;;;;;18.40;5.45;;;;;;;;;;5020907;28;20182;-73
2023/05/27 08:46:15;;;;;;;22.65;5.45;;;;;;;;;;5018021;28;20308;-72
2023/05/27 08:48:41;;;;;;;18.70;5.60;;;;;;;;;;5021588;28;20281;-73
2023/05/27 08:51:07;;;;;;;20.52;5.25;;;;;;;;;;5028260;28;20217;-74
2023/05/27 08:53:33;;;;;;;16.38;5.10;;;;;;;;;;5030662;28;20758;-74
2023/05/27 08:56:01;;;;;;;23.02;5.78;;;;;;;;;;5025529;28;20190;-74
2023/05/27 08:58:27;;;;;;;20.27;5.20;;;;;;;;;;5030176;28;20197;-74
2023/05/27 09:00:52;;;;;;;29.00;6.38;;;;;;;;;;5025770;28;20206;-74
2023/05/27 09:03:18;;;;;;;22.08;5.88;;;;;;;;;;5036079;28;20255;-74
2023/05/27 09:05:43;;;;;;;28.00;5.47;;;;;;;;;;5027601;28;20243;-75
2023/05/27 09:08:09;;;;;;;22.38;5.75;;;;;;;;;;5020190;28;20194;-75
2023/05/27 09:10:43;;;;;;;27.58;6.00;;;;;;;;;;5025068;28;20217;-74
2023/05/27 09:13:09;;;;;;;20.55;5.53;;;;;;;;;;5023984;28;20224;-74
2023/05/27 09:15:35;;;;;;;20.52;5.13;;;;;;;;;;5024485;28;20211;-74
2023/05/27 09:18:02;;;;;;;20.05;5.65;;;;;;;;;;5022273;28;20695;-73
2023/05/27 09:20:28;;;;;;;21.48;5.75;;;;;;;;;;5028606;28;20642;-68
2023/05/27 09:23:02;;;;;;;18.52;5.38;;;;;;;;;;5028732;28;20252;-73
2023/05/27 09:25:28;;;;;;;16.15;4.93;;;;;;;;;;5027068;28;20190;-74
2023/05/27 09:27:54;;;;;;;23.48;5.35;;;;;;;;;;5021407;28;20187;-74
2023/05/27 09:30:21;;;;;;;13.73;4.93;;;;;;;;;;5028176;28;20237;-74
2023/05/27 09:32:47;;;;;;;20.33;5.72;;;;;;;;;;5011231;28;20276;-73
2023/05/27 09:35:14;;;;;;;22.75;6.32;;;;;;;;;;5028406;28;20272;-72
2023/05/27 09:37:40;;;;;;;24.73;6.22;;;;;;;;;;5048209;28;20181;-71
2023/05/27 09:40:12;;;;;;;20.40;6.13;;;;;;;;;;5031627;28;20226;-71
2023/05/27 09:42:48;;;;;;;18.10;5.82;;;;;;;;;;5034841;28;20553;-72
2023/05/27 09:45:15;;;;;;;20.90;5.53;;;;;;;;;;5024526;28;20707;-71
2023/05/27 09:48:01;;;;;;;17.67;5.60;;;;;;;;;;5035043;28;20484;-73
2023/05/27 09:50:28;;;;;;;17.98;4.82;;;;;;;;;;5026688;28;20226;-72
2023/05/27 09:52:55;;;;;;;18.85;5.72;;;;;;;;;;5027168;28;20190;-72
2023/05/27 09:55:20;;;;;;;19.10;5.40;;;;;;;;;;5016383;28;20523;-72
2023/05/27 09:57:46;;;;;;;21.83;6.32;;;;;;;;;;5029325;28;20219;-73
2023/05/27 10:00:12;;;;;;;17.90;4.75;;;;;;;;;;5031449;28;20186;-74
2023/05/27 10:02:58;;;;;;;20.67;6.25;;;;;;;;;;5026001;28;20226;-73
2023/05/27 10:05:25;;;;;;;18.08;5.57;;;;;;;;;;5024308;28;20205;-73
2023/05/27 10:07:50;;;;;;;18.70;6.18;;;;;;;;;;5011340;28;20226;-72
2023/05/27 10:10:18;;;;;;;20.67;5.43;;;;;;;;;;5022262;28;20242;-73
2023/05/27 10:12:45;;;;;;;19.92;6.05;;;;;;;;;;5011974;28;20631;-73
2023/05/27 10:15:22;;;;;;;20.48;5.68;;;;;;;;;;5033239;28;20212;-69
2023/05/27 10:17:49;;;;;;;23.33;5.82;;;;;;;;;;5029618;28;20661;-72
2023/05/27 10:20:37;;;;;;;27.25;6.13;;;;;;;;;;5025174;28;20333;-70
2023/05/27 10:23:17;;;;;;;16.25;5.10;;;;;;;;;;5035058;28;20596;-71
2023/05/27 10:25:50;;;;;;;18.90;5.50;;;;;;;;;;5019471;28;20189;-70
2023/05/27 10:28:26;;;;;;;18.13;5.38;;;;;;;;;;5016718;28;20201;-73
2023/05/27 10:30:52;;;;;;;18.15;5.18;;;;;;;;;;5024986;28;20347;-73
2023/05/27 10:33:32;;;;;;;20.13;5.65;;;;;;;;;;5040346;28;20650;-72
2023/05/27 10:36:13;;;;;;;19.60;5.47;;;;;;;;;;5029226;28;20286;-72
2023/05/27 10:38:41;;;;;;;17.83;4.80;;;;;;;;;;5018795;28;20238;-72
2023/05/27 10:41:07;;;;;;;27.10;6.45;;;;;;;;;;5021743;28;20229;-72
2023/05/27 10:43:33;;;;;;;16.35;5.50;;;;;;;;;;5018082;28;20222;-72
2023/05/27 10:46:37;;;;;;;16.13;5.40;;;;;;;;;;5029291;28;20272;-71
2023/05/27 10:49:10;;;;;;;18.88;5.40;;;;;;;;;;5015608;28;20213;-72
2023/05/27 10:51:36;;;;;;;15.90;5.03;;;;;;;;;;5022490;28;20914;-71
2023/05/27 10:54:05;;;;;;;15.07;5.18;;;;;;;;;;5018395;28;20587;-70
2023/05/27 10:56:30;;;;;;;20.60;5.88;;;;;;;;;;5021045;28;20268;-73
2023/05/27 10:58:56;;;;;;;16.17;4.90;;;;;;;;;;5022330;28;20722;-71
2023/05/27 11:01:27;;;;;;;15.88;5.10;;;;;;;;;;5019497;28;20240;-73
2023/05/27 11:03:54;;;;;;;14.50;5.13;;;;;;;;;;5025224;28;20186;-72
2023/05/27 11:06:19;;;;;;;15.70;5.57;;;;;;;;;;5026338;28;20185;-72
2023/05/27 11:08:45;;;;;;;18.45;5.32;;;;;;;;;;5023552;28;20250;-72
2023/05/27 11:11:12;;;;;;;21.52;6.32;;;;;;;;;;5020848;28;20201;-71
2023/05/27 11:13:42;;;;;;;20.02;6.07;;;;;;;;;;5017378;28;20201;-71
2023/05/27 11:16:08;;;;;;;16.38;5.53;;;;;;;;;;5016353;28;20236;-72
2023/05/27 11:18:41;;;;;;;16.23;5.75;;;;;;;;;;5013082;28;20194;-72
2023/05/27 11:21:11;;;;;;;15.50;4.35;;;;;;;;;;5031389;28;20182;-74
2023/05/27 11:23:41;;;;;;;16.20;5.13;;;;;;;;;;5015032;28;20674;-72
2023/05/27 11:26:22;;;;;;;16.33;5.30;;;;;;;;;;5022735;28;20482;-74
2023/05/27 11:28:57;;;;;;;15.40;5.32;;;;;;;;;;5018229;28;20269;-74
2023/05/27 11:31:31;;;;;;;16.80;4.97;;;;;;;;;;5027543;28;20206;-74
2023/05/27 11:33:56;;;;;;;15.73;4.57;;;;;;;;;;5016239;28;20277;-74
2023/05/27 11:36:26;;;;;;;13.15;4.70;;;;;;;;;;5026163;28;20274;-72
2023/05/27 11:38:57;;;;;;;16.92;5.50;;;;;;;;;;5025426;28;20640;-68
2023/05/27 11:41:27;;;;;;;17.42;5.22;;;;;;;;;;5018766;28;20229;-72
2023/05/27 11:44:00;;;;;;;12.80;4.45;;;;;;;;;;5019204;28;20214;-74
2023/05/27 11:46:36;;;;;;;14.00;4.72;;;;;;;;;;5020311;28;20186;-71
2023/05/27 11:49:07;;;;;;;17.35;5.13;;;;;;;;;;5022585;28;20178;-74
2023/05/27 11:51:38;;;;;;;18.40;5.32;;;;;;;;;;5028034;28;20245;-70
2023/05/27 11:54:03;;;;;;;22.00;5.75;;;;;;;;;;5034247;28;20193;-71
2023/05/27 11:56:29;;;;;;;18.08;5.10;;;;;;;;;;5027325;28;20186;-72
2023/05/27 11:58:56;;;;;;;16.08;5.18;;;;;;;;;;5036584;28;20194;-74
2023/05/27 12:01:22;;;;;;;15.55;5.72;;;;;;;;;;5028919;28;20210;-74
2023/05/27 12:03:47;;;;;;;15.30;5.88;;;;;;;;;;5030931;28;20263;-73
2023/05/27 12:06:13;;;;;;;18.95;5.93;;;;;;;;;;5025913;28;20283;-73
2023/05/27 12:08:38;;;;;;;13.18;5.55;;;;;;;;;;5028615;28;20237;-71
2023/05/27 12:11:04;;;;;;;13.98;4.90;;;;;;;;;;5018451;28;20888;-71
2023/05/27 12:13:31;;;;;;;17.27;5.40;;;;;;;;;;5029789;28;20281;-71
2023/05/27 12:15:57;;;;;;;14.88;5.35;;;;;;;;;;5030427;28;20186;-70
2023/05/27 12:18:23;;;;;;;20.63;5.32;;;;;;;;;;5030033;28;20201;-71
2023/05/27 12:20:48;;;;;;;16.27;5.15;;;;;;;;;;5019481;28;20224;-72
2023/05/27 12:23:14;;;;;;;15.70;4.95;;;;;;;;;;5026143;28;20190;-72
2023/05/27 12:25:39;;;;;;;14.40;5.40;;;;;;;;;;5025414;28;20385;-73
2023/05/27 12:28:07;;;;;;;20.70;5.82;;;;;;;;;;5028228;28;20209;-71
2023/05/27 12:30:33;;;;;;;18.08;5.25;;;;;;;;;;5028774;28;20674;-73
2023/05/27 12:32:59;;;;;;;16.70;6.00;;;;;;;;;;5025304;28;20424;-73
2023/05/27 12:35:24;;;;;;;20.70;5.22;;;;;;;;;;5014799;28;20201;-72
2023/05/27 12:37:50;;;;;;;14.30;5.30;;;;;;;;;;5020316;28;20193;-74
2023/05/27 12:40:15;;;;;;;14.63;5.60;;;;;;;;;;5029953;28;20320;-73
2023/05/27 12:42:42;;;;;;;16.35;4.75;;;;;;;;;;5027435;28;20204;-71
2023/05/27 12:45:10;;;;;;;16.10;5.30;;;;;;;;;;5015083;28;20277;-71
2023/05/27 12:47:37;;;;;;;17.17;5.28;;;;;;;;;;5027319;28;20208;-72
2023/05/27 12:50:03;;;;;;;18.08;5.20;;;;;;;;;;5022827;28;20207;-72
2023/05/27 12:52:29;;;;;;;17.92;5.15;;;;;;;;;;5025173;28;20201;-71
2023/05/27 12:54:54;;;;;;;19.65;5.43;;;;;;;;;;5014742;28;20249;-72
2023/05/27 12:57:20;;;;;;;13.57;5.47;;;;;;;;;;5024103;28;20201;-71
2023/05/27 12:59:45;;;;;;;14.88;5.00;;;;;;;;;;5031460;28;20198;-72
2023/05/27 13:02:10;;;;;;;12.90;5.35;;;;;;;;;;5029979;28;20217;-70
2023/05/27 13:04:36;;;;;;;17.80;5.20;;;;;;;;;;5015396;28;20229;-70
2023/05/27 13:07:01;;;;;;;15.82;5.30;;;;;;;;;;5027380;28;20248;-71
2023/05/27 13:09:27;;;;;;;24.25;5.63;;;;;;;;;;5022006;28;20625;-72
2023/05/27 13:11:52;;;;;;;14.38;5.38;;;;;;;;;;5026327;28;20258;-71
2023/05/27 13:14:18;;;;;;;15.63;5.40;;;;;;;;;;5029749;28;20198;-70
2023/05/27 13:16:43;;;;;;;18.65;5.13;;;;;;;;;;5014276;28;20647;-69
2023/05/27 13:19:08;;;;;;;16.55;5.78;;;;;;;;;;5022967;28;20187;-71
2023/05/27 13:21:34;;;;;;;14.48;4.90;;;;;;;;;;5019898;28;20608;-73
2023/05/27 13:23:59;;;;;;;11.82;4.95;;;;;;;;;;5023348;28;20205;-73
2023/05/27 13:26:25;;;;;;;14.20;4.90;;;;;;;;;;5011584;28;20266;-71
2023/05/27 13:28:51;;;;;;;16.52;5.15;;;;;;;;;;5027987;28;20190;-73
2023/05/27 13:31:16;;;;;;;15.85;5.10;;;;;;;;;;5020150;28;20268;-72
2023/05/27 13:33:42;;;;;;;15.02;4.38;;;;;;;;;;5024527;28;20221;-71
2023/05/27 13:36:07;;;;;;;14.73;4.75;;;;;;;;;;5028548;28;20198;-73
2023/05/27 13:38:33;;;;;;;11.52;4.95;;;;;;;;;;5017416;28;20258;-71
2023/05/27 13:40:59;;;;;;;11.10;4.53;;;;;;;;;;5019820;28;20193;-72
2023/05/27 13:43:25;;;;;;;13.77;4.43;;;;;;;;;;5024490;28;20183;-72
2023/05/27 13:45:50;;;;;;;11.43;3.67;;;;;;;;;;5015681;28;20189;-73
2023/05/27 13:48:16;;;;;;;15.40;5.00;;;;;;;;;;5021835;28;20186;-73
2023/05/27 13:50:41;;;;;;;15.10;5.05;;;;;;;;;;5022875;28;20214;-72
2023/05/27 13:53:07;;;;;;;10.18;3.83;;;;;;;;;;5026997;28;20252;-72
2023/05/27 13:55:32;;;;;;;11.35;3.92;;;;;;;;;;5017184;28;20289;-73
2023/05/27 13:57:58;;;;;;;11.90;4.60;;;;;;;;;;5024087;28;20732;-71
2023/05/27 14:00:23;;;;;;;11.07;4.07;;;;;;;;;;5028031;28;20226;-72
2023/05/27 14:02:49;;;;;;;14.15;4.68;;;;;;;;;;5025839;28;20198;-73
2023/05/27 14:05:14;;;;;;;10.82;4.05;;;;;;;;;;5017846;28;20241;-72
2023/05/27 14:07:41;;;;;;;12.88;4.53;;;;;;;;;;5014063;28;20589;-72
2023/05/27 14:10:07;;;;;;;13.23;3.88;;;;;;;;;;5013990;28;20206;-73
2023/05/27 14:12:33;;;;;;;14.48;4.75;;;;;;;;;;5025859;28;20263;-71
2023/05/27 14:14:58;;;;;;;11.70;4.25;;;;;;;;;;5027825;28;20258;-71
2023/05/27 14:17:23;;;;;;;13.20;4.50;;;;;;;;;;5027635;28;20463;-70
2023/05/27 14:19:49;;;;;;;10.02;4.63;;;;;;;;;;5023252;28;20209;-72
2023/05/27 14:22:15;;;;;;;11.23;4.45;;;;;;;;;;5024801;28;20233;-73
2023/05/27 14:24:40;;;;;;;14.20;4.30;;;;;;;;;;5023717;28;20460;-71
2023/05/27 14:27:07;;;;;;;10.40;4.20;;;;;;;;;;5033472;28;20194;-71